Time;durP1;ratioP1;P1;durP2;ratioP2;P2;SDS_P1;SDS_P2;PMS_P1;PMS_P2;Temp;Humidity;BMP_temperature;BMP_pressure;BME280_temperature;BME280_humidity;BME280_pressure;Samples;Min_cycle;Max_cycle;Signal;HPM_P1;HPM_P2
2021/01/23 03:17:38;;;;;;;25.00;24.00;;;3.20;99.90;;;;;;5409344;23;20638;-73
2021/01/23 03:20:05;;;;;;;25.20;24.20;;;3.20;99.90;;;;;;4934622;29;20450;-73
2021/01/23 03:22:31;;;;;;;25.90;24.73;;;3.20;99.90;;;;;;4934824;29;20449;-74
2021/01/23 03:24:57;;;;;;;25.77;24.67;;;3.30;99.90;;;;;;4934646;29;20493;-74
2021/01/23 03:27:24;;;;;;;24.70;23.70;;;3.40;99.90;;;;;;4934645;29;20454;-74
2021/01/23 03:29:50;;;;;;;26.20;25.10;;;3.40;99.90;;;;;;4934071;29;20449;-74
2021/01/23 03:32:16;;;;;;;26.53;25.33;;;3.50;99.90;;;;;;4933340;29;20460;-73
2021/01/23 03:34:43;;;;;;;27.73;26.50;;;3.40;99.90;;;;;;4931331;29;20919;-73
2021/01/23 03:37:09;;;;;;;26.77;25.67;;;3.40;99.90;;;;;;4931536;29;20711;-73
2021/01/23 03:39:35;;;;;;;26.40;25.30;;;3.40;99.90;;;;;;4933143;29;20455;-73
2021/01/23 03:42:02;;;;;;;25.63;24.60;;;3.40;99.90;;;;;;4930739;29;20457;-73
2021/01/23 03:44:28;;;;;;;27.07;25.87;;;3.50;99.90;;;;;;4933112;29;20456;-72
2021/01/23 03:46:54;;;;;;;24.87;23.87;;;3.50;99.90;;;;;;4933105;29;20446;-73
2021/01/23 03:49:20;;;;;;;24.97;23.97;;;3.60;99.90;;;;;;4933125;29;20497;-72
2021/01/23 03:51:47;;;;;;;25.97;24.77;;;3.60;99.90;;;;;;4933381;29;20457;-73
2021/01/23 03:54:14;;;;;;;25.13;24.13;;;3.70;99.90;;;;;;4933440;29;20458;-71
2021/01/23 03:56:40;;;;;;;25.90;24.90;;;3.60;99.90;;;;;;4932945;29;20987;-73
2021/01/23 03:59:06;;;;;;;26.50;25.30;;;3.70;99.90;;;;;;4932908;29;20453;-72
2021/01/23 04:01:32;;;;;;;25.80;24.70;;;3.60;99.90;;;;;;4933687;29;20467;-72
2021/01/23 04:03:59;;;;;;;26.13;25.10;;;3.70;99.90;;;;;;4934170;29;20450;-73
2021/01/23 04:06:25;;;;;;;28.60;26.87;;;3.70;99.90;;;;;;4933920;29;21033;-73
2021/01/23 04:08:52;;;;;;;27.50;26.30;;;3.70;99.90;;;;;;4934094;29;20465;-73
2021/01/23 04:11:18;;;;;;;27.70;26.53;;;3.70;99.90;;;;;;4933976;29;20459;-73
2021/01/23 04:13:44;;;;;;;28.10;26.80;;;3.70;99.90;;;;;;4934216;29;20482;-73
2021/01/23 04:16:10;;;;;;;27.97;26.87;;;3.80;99.90;;;;;;4933741;29;20481;-73
2021/01/23 04:18:36;;;;;;;27.50;26.30;;;3.90;99.90;;;;;;4933734;29;20484;-73
2021/01/23 04:21:03;;;;;;;27.80;26.40;;;3.90;99.90;;;;;;4934105;29;20453;-73
2021/01/23 04:23:29;;;;;;;27.83;26.53;;;3.90;99.90;;;;;;4933818;29;20457;-73
2021/01/23 04:25:56;;;;;;;28.17;26.77;;;3.90;99.90;;;;;;4933345;29;20560;-73
2021/01/23 04:28:23;;;;;;;28.10;26.77;;;4.00;99.90;;;;;;4933661;29;20475;-74
2021/01/23 04:30:49;;;;;;;28.80;27.60;;;4.00;99.90;;;;;;4934086;29;20829;-75
2021/01/23 04:33:15;;;;;;;28.13;27.03;;;4.00;99.90;;;;;;4921665;29;20453;-74
2021/01/23 04:35:41;;;;;;;27.67;26.57;;;4.00;99.90;;;;;;4923604;29;20444;-74
2021/01/23 04:38:07;;;;;;;28.13;26.93;;;4.00;99.90;;;;;;4922500;29;20509;-75
2021/01/23 04:40:34;;;;;;;27.70;26.50;;;4.00;99.90;;;;;;4922352;29;20450;-75
2021/01/23 04:43:02;;;;;;;28.43;27.13;;;4.10;99.90;;;;;;4919517;29;20952;-75
2021/01/23 04:45:28;;;;;;;26.63;25.53;;;4.00;99.90;;;;;;4922638;29;20483;-75
2021/01/23 04:47:55;;;;;;;27.60;26.40;;;4.00;99.90;;;;;;4923799;29;20453;-76
2021/01/23 04:50:21;;;;;;;26.03;25.00;;;4.00;99.90;;;;;;4919513;29;20446;-74
2021/01/23 04:52:48;;;;;;;25.70;24.67;;;4.00;99.90;;;;;;4921907;29;20864;-74
2021/01/23 04:55:14;;;;;;;26.40;24.80;;;4.00;99.90;;;;;;4923479;29;20801;-75
2021/01/23 04:57:42;;;;;;;24.73;23.53;;;3.90;99.90;;;;;;4919105;29;20454;-74
2021/01/23 05:00:11;;;;;;;24.93;23.87;;;3.90;99.90;;;;;;4922216;29;20990;-75
2021/01/23 05:02:37;;;;;;;25.10;24.20;;;3.80;99.90;;;;;;4929398;29;20442;-75
2021/01/23 05:05:05;;;;;;;23.97;22.97;;;3.80;99.90;;;;;;4933312;29;20485;-75
2021/01/23 05:07:33;;;;;;;22.57;21.77;;;3.70;99.90;;;;;;4933414;29;20494;-76
2021/01/23 05:10:13;;;;;;;23.03;22.13;;;3.70;99.90;;;;;;4933410;29;20466;-76
2021/01/23 05:12:41;;;;;;;23.10;22.20;;;3.80;99.90;;;;;;4933044;29;20487;-75
2021/01/23 05:15:11;;;;;;;24.40;23.40;;;3.80;99.90;;;;;;4932589;29;20939;-75
2021/01/23 05:17:48;;;;;;;23.80;22.90;;;3.70;99.90;;;;;;4932689;29;20484;-76
2021/01/23 05:20:30;;;;;;;24.60;23.50;;;3.60;99.90;;;;;;4932756;29;21031;-76
2021/01/23 05:22:56;;;;;;;23.50;22.50;;;3.50;99.90;;;;;;4932702;29;20464;-76
2021/01/23 05:25:26;;;;;;;23.50;22.60;;;3.50;99.90;;;;;;4932740;29;20489;-75
2021/01/23 05:27:52;;;;;;;23.83;22.83;;;3.40;99.90;;;;;;4932759;29;20460;-76
2021/01/23 05:30:20;;;;;;;22.33;21.43;;;3.40;99.90;;;;;;4933011;29;20966;-75
2021/01/23 05:33:04;;;;;;;22.77;21.87;;;3.30;99.90;;;;;;4932947;29;20832;-76
2021/01/23 05:35:30;;;;;;;22.10;21.30;;;3.40;99.90;;;;;;4932721;29;20455;-76
2021/01/23 05:37:56;;;;;;;22.03;21.23;;;3.30;99.90;;;;;;4932665;29;20445;-76
2021/01/23 05:40:30;;;;;;;22.23;21.33;;;3.30;99.90;;;;;;4932545;29;20449;-75
2021/01/23 05:42:56;;;;;;;21.70;20.87;;;3.30;99.90;;;;;;4932638;29;20886;-75
2021/01/23 05:45:23;;;;;;;21.63;20.63;;;3.20;99.90;;;;;;4932136;29;20493;-75
2021/01/23 05:47:49;;;;;;;21.50;20.70;;;3.20;99.90;;;;;;4932874;29;20458;-76
2021/01/23 05:50:15;;;;;;;21.87;20.87;;;3.20;99.90;;;;;;4932741;29;20463;-75
2021/01/23 05:52:42;;;;;;;21.33;20.53;;;3.20;99.90;;;;;;4932406;29;20490;-76
2021/01/23 05:55:09;;;;;;;21.13;20.30;;;3.20;99.90;;;;;;4932280;29;20453;-75
2021/01/23 05:57:36;;;;;;;22.10;21.23;;;3.20;99.90;;;;;;4932191;29;20470;-75
2021/01/23 06:00:04;;;;;;;21.60;20.70;;;3.20;99.90;;;;;;4932261;29;20453;-74
2021/01/23 06:02:31;;;;;;;21.40;20.60;;;3.20;99.90;;;;;;4932318;29;20524;-75
2021/01/23 06:04:58;;;;;;;20.23;19.33;;;3.30;99.90;;;;;;4931919;29;20810;-75
2021/01/23 06:07:44;;;;;;;20.90;20.03;;;3.30;99.90;;;;;;4932111;29;20465;-75
2021/01/23 06:10:39;;;;;;;21.10;20.30;;;3.30;99.90;;;;;;4931989;29;20461;-75
2021/01/23 06:13:26;;;;;;;22.00;21.20;;;3.40;99.90;;;;;;4932207;29;20461;-76
2021/01/23 06:15:53;;;;;;;21.90;21.00;;;3.30;99.90;;;;;;4931771;29;20506;-76
2021/01/23 06:18:29;;;;;;;21.20;20.40;;;3.20;99.90;;;;;;4932236;29;20485;-76
2021/01/23 06:20:56;;;;;;;20.57;19.77;;;3.20;99.90;;;;;;4931712;29;20491;-77
2021/01/23 06:23:42;;;;;;;21.40;20.60;;;3.20;99.90;;;;;;4932192;29;20457;-76
2021/01/23 06:26:09;;;;;;;20.47;19.67;;;3.20;99.90;;;;;;4931792;29;20574;-76
2021/01/23 06:28:59;;;;;;;20.03;19.33;;;3.20;99.90;;;;;;4932136;29;20450;-76
2021/01/23 06:31:33;;;;;;;21.30;20.40;;;3.20;99.90;;;;;;4917232;29;20450;-77
2021/01/23 06:34:01;;;;;;;21.13;20.23;;;3.20;99.90;;;;;;4931981;29;20457;-76
2021/01/23 06:36:29;;;;;;;19.73;18.87;;;3.20;99.90;;;;;;4931879;29;20457;-77
2021/01/23 06:39:04;;;;;;;19.93;19.10;;;3.20;99.90;;;;;;4931990;29;20560;-76
2021/01/23 06:41:32;;;;;;;19.97;19.17;;;3.20;99.90;;;;;;4932143;29;20449;-77
2021/01/23 06:44:18;;;;;;;19.97;19.00;;;3.20;99.90;;;;;;4932095;29;20476;-77
2021/01/23 06:46:57;;;;;;;20.30;19.43;;;3.20;99.90;;;;;;4931555;29;20591;-76
2021/01/23 06:49:24;;;;;;;19.53;18.73;;;3.20;99.90;;;;;;4931840;29;20489;-77
2021/01/23 06:51:51;;;;;;;18.93;18.03;;;3.20;99.90;;;;;;4931774;29;20554;-76
2021/01/23 06:54:18;;;;;;;19.63;18.80;;;3.20;99.90;;;;;;4932332;29;20454;-76
2021/01/23 06:56:47;;;;;;;18.70;17.90;;;3.30;99.90;;;;;;4931895;29;20452;-77
2021/01/23 06:59:24;;;;;;;18.47;17.67;;;3.20;99.90;;;;;;4931898;29;20548;-76
2021/01/23 07:01:56;;;;;;;18.53;17.83;;;3.20;99.90;;;;;;4931884;29;20485;-77
2021/01/23 07:04:24;;;;;;;18.40;17.50;;;3.20;99.90;;;;;;4931772;29;20485;-76
2021/01/23 07:06:50;;;;;;;17.47;16.77;;;3.20;99.90;;;;;;4931686;29;20493;-77
2021/01/23 07:09:16;;;;;;;18.50;17.63;;;3.10;99.90;;;;;;4931847;29;20953;-77
2021/01/23 07:11:42;;;;;;;18.53;17.80;;;3.20;99.90;;;;;;4931678;29;20510;-77
2021/01/23 07:14:09;;;;;;;18.23;17.43;;;3.10;99.90;;;;;;4931654;29;20470;-78
2021/01/23 07:16:37;;;;;;;19.60;18.70;;;3.10;99.90;;;;;;4933907;29;20481;-79
2021/01/23 07:19:05;;;;;;;17.17;16.50;;;3.10;99.90;;;;;;4935386;29;20462;-78
2021/01/23 07:21:34;;;;;;;17.47;16.60;;;3.10;99.90;;;;;;4935263;29;20987;-78
2021/01/23 07:24:01;;;;;;;17.93;17.23;;;3.20;99.90;;;;;;4935334;29;20457;-78
2021/01/23 07:26:29;;;;;;;17.10;16.40;;;3.20;99.90;;;;;;4935074;29;20922;-77
2021/01/23 07:28:56;;;;;;;16.27;15.67;;;3.20;99.90;;;;;;4934876;29;20454;-78
2021/01/23 07:31:25;;;;;;;15.30;14.70;;;3.20;99.90;;;;;;4934712;29;21033;-77
2021/01/23 07:33:51;;;;;;;16.30;15.60;;;3.20;99.90;;;;;;4934918;29;20463;-77
2021/01/23 07:36:28;;;;;;;15.57;14.60;;;3.20;99.90;;;;;;4935192;29;20449;-78
2021/01/23 07:38:56;;;;;;;16.07;15.27;;;3.20;99.90;;;;;;4934857;29;20464;-79
2021/01/23 07:41:23;;;;;;;16.90;16.10;;;3.30;99.90;;;;;;4934596;29;20464;-79
2021/01/23 07:43:49;;;;;;;16.20;15.40;;;3.30;99.90;;;;;;4934917;29;20459;-77
2021/01/23 07:46:16;;;;;;;15.70;15.00;;;3.40;99.90;;;;;;4934792;29;20490;-77
2021/01/23 07:48:42;;;;;;;14.57;13.87;;;3.40;99.90;;;;;;4934563;29;20463;-77
2021/01/23 07:51:21;;;;;;;14.30;13.60;;;3.40;99.90;;;;;;4934536;29;20462;-76
2021/01/23 07:54:11;;;;;;;14.30;13.70;;;3.40;99.90;;;;;;4934712;29;20817;-77
2021/01/23 07:56:38;;;;;;;14.70;14.10;;;3.50;99.90;;;;;;4934391;29;20788;-76
2021/01/23 07:59:05;;;;;;;13.17;12.57;;;3.50;99.90;;;;;;4934461;29;20825;-77
2021/01/23 08:01:31;;;;;;;13.90;13.30;;;3.60;99.90;;;;;;4934847;29;20446;-77
2021/01/23 08:03:58;;;;;;;13.90;13.20;;;3.60;99.90;;;;;;4934191;29;20453;-77
2021/01/23 08:06:25;;;;;;;12.40;11.90;;;3.60;99.90;;;;;;4934169;29;20493;-79
2021/01/23 08:08:52;;;;;;;13.23;12.73;;;3.70;99.90;;;;;;4934181;29;20459;-80
2021/01/23 08:11:36;;;;;;;14.03;13.33;;;3.70;99.90;;;;;;4934560;29;20856;-81
2021/01/23 08:14:10;;;;;;;13.27;12.67;;;3.80;99.90;;;;;;4934403;29;20833;-82
2021/01/23 08:16:49;;;;;;;12.73;12.10;;;3.80;99.90;;;;;;4934019;29;20513;-80
2021/01/23 08:19:15;;;;;;;12.60;11.80;;;3.70;99.90;;;;;;4934237;29;20455;-76
2021/01/23 08:21:41;;;;;;;13.17;12.47;;;3.70;99.90;;;;;;4925357;29;21072;-79
2021/01/23 08:24:28;;;;;;;11.67;10.97;;;3.80;99.90;;;;;;4923901;29;20457;-82
2021/01/23 08:27:00;;;;;;;11.73;11.13;;;3.90;99.90;;;;;;4916012;29;20924;-82
2021/01/23 08:29:26;;;;;;;13.20;12.40;;;3.90;99.90;;;;;;4895745;29;20483;-78
2021/01/23 08:32:04;;;;;;;12.10;11.50;;;3.90;99.90;;;;;;4895690;29;20967;-79
2021/01/23 08:34:30;;;;;;;13.40;12.60;;;4.00;99.90;;;;;;4895987;29;20460;-79
2021/01/23 08:36:57;;;;;;;11.90;11.30;;;4.10;99.90;;;;;;4895768;29;20481;-80
2021/01/23 08:39:23;;;;;;;12.77;12.03;;;4.10;99.90;;;;;;4895866;29;20463;-73
2021/01/23 08:41:49;;;;;;;12.30;11.70;;;4.30;99.90;;;;;;4896030;29;20473;-80
2021/01/23 08:44:16;;;;;;;12.80;12.00;;;4.40;99.90;;;;;;4895826;29;20817;-79
2021/01/23 08:46:43;;;;;;;11.43;10.93;;;4.50;99.90;;;;;;4895600;29;20517;-80
2021/01/23 08:49:09;;;;;;;12.30;11.70;;;4.60;99.90;;;;;;4895386;29;21025;-79
2021/01/23 08:51:37;;;;;;;12.00;11.27;;;4.70;99.90;;;;;;4895624;29;20452;-79
2021/01/23 08:54:03;;;;;;;12.90;11.60;;;4.80;99.90;;;;;;4895719;29;20488;-79
2021/01/23 08:56:31;;;;;;;13.13;12.33;;;4.80;99.90;;;;;;4895546;29;20457;-78
2021/01/23 08:58:57;;;;;;;11.50;10.80;;;4.90;99.90;;;;;;4895582;29;20461;-78
2021/01/23 09:01:24;;;;;;;11.20;10.70;;;4.90;99.90;;;;;;4895395;29;20803;-79
2021/01/23 09:03:50;;;;;;;12.47;11.77;;;4.90;99.90;;;;;;4895325;29;20861;-78
2021/01/23 09:06:16;;;;;;;11.17;10.63;;;4.80;99.90;;;;;;4895388;29;20491;-77
2021/01/23 09:08:44;;;;;;;11.20;10.60;;;4.70;99.90;;;;;;4894897;29;20457;-77
2021/01/23 09:11:11;;;;;;;12.17;11.47;;;4.60;99.90;;;;;;4895038;29;20505;-77
2021/01/23 09:13:37;;;;;;;13.27;12.37;;;4.60;99.90;;;;;;4895033;29;20512;-77
2021/01/23 09:16:03;;;;;;;12.50;11.77;;;4.60;99.90;;;;;;4894890;29;20473;-78
2021/01/23 09:18:32;;;;;;;11.97;11.20;;;4.70;99.90;;;;;;4894913;29;20490;-77
2021/01/23 09:20:58;;;;;;;12.53;11.83;;;4.60;99.90;;;;;;4895013;29;20491;-78
2021/01/23 09:23:24;;;;;;;12.00;11.30;;;4.70;99.90;;;;;;4894783;29;20515;-77
2021/01/23 09:25:50;;;;;;;12.20;11.50;;;4.90;99.90;;;;;;4894658;29;20493;-78
2021/01/23 09:28:17;;;;;;;12.77;11.87;;;4.80;99.90;;;;;;4895100;29;20457;-78
2021/01/23 09:30:44;;;;;;;13.13;12.23;;;4.90;99.90;;;;;;4894757;29;20462;-79
2021/01/23 09:33:10;;;;;;;13.83;12.27;;;4.90;99.90;;;;;;4894885;29;20459;-79
2021/01/23 09:35:37;;;;;;;11.33;10.83;;;5.10;99.90;;;;;;4894760;29;20461;-77
2021/01/23 09:38:03;;;;;;;12.20;11.50;;;5.20;99.90;;;;;;4894539;29;20457;-77
2021/01/23 09:40:29;;;;;;;12.10;11.40;;;5.30;99.90;;;;;;4894803;29;20820;-75
2021/01/23 09:42:56;;;;;;;12.03;11.43;;;5.50;99.90;;;;;;4894740;29;20473;-76
2021/01/23 09:45:22;;;;;;;11.40;10.83;;;5.60;99.90;;;;;;4894505;29;20462;-81
2021/01/23 09:47:48;;;;;;;11.03;10.53;;;5.90;99.90;;;;;;4894807;29;20468;-77
2021/01/23 09:50:18;;;;;;;11.17;10.50;;;5.90;99.90;;;;;;4894777;29;20467;-78
2021/01/23 09:52:45;;;;;;;10.20;9.80;;;6.10;99.90;;;;;;4895089;29;20455;-77
2021/01/23 09:55:12;;;;;;;11.87;11.30;;;6.40;99.90;;;;;;4894904;29;20455;-83
2021/01/23 09:57:38;;;;;;;11.17;10.60;;;6.60;99.90;;;;;;4894450;29;20740;-79
2021/01/23 10:00:06;;;;;;;10.73;10.23;;;6.50;99.90;;;;;;4894255;29;20466;-80
2021/01/23 10:02:34;;;;;;;10.93;10.23;;;6.70;99.90;;;;;;4894512;29;20455;-79
2021/01/23 10:05:00;;;;;;;11.80;11.30;;;6.90;99.90;;;;;;4906686;29;20980;-79
2021/01/23 10:07:27;;;;;;;11.03;10.53;;;7.10;99.90;;;;;;4912977;29;20521;-79
2021/01/23 10:09:54;;;;;;;11.60;11.10;;;7.20;99.90;;;;;;4894194;29;20451;-80
2021/01/23 10:12:20;;;;;;;11.00;10.53;;;7.30;99.90;;;;;;4899178;29;20937;-80
2021/01/23 10:14:46;;;;;;;12.17;11.67;;;7.50;99.90;;;;;;4913669;29;20513;-80
2021/01/23 10:17:13;;;;;;;11.17;10.77;;;7.70;99.90;;;;;;4912650;29;20862;-80
2021/01/23 10:19:39;;;;;;;12.33;11.73;;;7.80;99.90;;;;;;4912806;29;20545;-80
2021/01/23 10:22:06;;;;;;;12.43;11.93;;;7.90;99.90;;;;;;4912926;29;20466;-81
2021/01/23 10:24:32;;;;;;;11.37;10.97;;;7.80;99.90;;;;;;4913287;29;20458;-79
2021/01/23 10:26:59;;;;;;;11.47;10.93;;;7.90;99.90;;;;;;4912819;29;21100;-80
2021/01/23 10:29:25;;;;;;;10.73;10.27;;;7.80;99.90;;;;;;4913215;29;20462;-80
2021/01/23 10:31:51;;;;;;;11.80;11.30;;;7.60;99.90;;;;;;4912805;29;20564;-80
2021/01/23 10:34:18;;;;;;;11.13;10.57;;;7.70;99.90;;;;;;4913095;29;20462;-79
2021/01/23 10:36:44;;;;;;;10.83;10.43;;;7.80;99.90;;;;;;4912847;29;20458;-79
2021/01/23 10:39:10;;;;;;;11.40;11.00;;;7.90;99.90;;;;;;4912630;29;20844;-80
2021/01/23 10:41:36;;;;;;;11.80;11.20;;;7.90;99.90;;;;;;4911336;29;20483;-76
2021/01/23 10:44:03;;;;;;;11.80;11.30;;;7.60;99.90;;;;;;4913640;29;20466;-79
2021/01/23 10:46:30;;;;;;;11.73;11.27;;;7.60;99.90;;;;;;4913267;29;20517;-79
2021/01/23 10:48:56;;;;;;;12.03;11.50;;;7.60;99.90;;;;;;4913379;29;20831;-79
2021/01/23 10:51:22;;;;;;;12.10;11.60;;;7.60;99.90;;;;;;4915517;29;20458;-79
2021/01/23 10:53:48;;;;;;;12.20;11.70;;;7.30;99.90;;;;;;4917424;29;20460;-80
2021/01/23 10:56:15;;;;;;;12.20;11.70;;;7.20;99.90;;;;;;4917152;29;20474;-77
2021/01/23 10:58:41;;;;;;;12.13;11.43;;;7.10;99.90;;;;;;4916815;29;21013;-80
2021/01/23 11:01:08;;;;;;;11.47;10.87;;;7.00;99.90;;;;;;4916948;29;20506;-79
2021/01/23 11:03:34;;;;;;;12.17;11.57;;;7.00;99.90;;;;;;4915125;29;20462;-76
2021/01/23 11:06:00;;;;;;;11.93;11.40;;;7.10;99.90;;;;;;4917147;29;20562;-76
2021/01/23 11:08:26;;;;;;;11.40;10.90;;;7.10;99.90;;;;;;4917177;29;20458;-76
2021/01/23 11:10:53;;;;;;;10.83;10.43;;;7.60;99.90;;;;;;4917077;29;20514;-77
2021/01/23 11:13:19;;;;;;;11.50;11.10;;;7.80;99.90;;;;;;4917311;29;20450;-77
2021/01/23 11:15:45;;;;;;;12.00;11.50;;;8.10;99.90;;;;;;4917190;29;20477;-77
2021/01/23 11:18:12;;;;;;;12.17;11.67;;;8.50;99.90;;;;;;4916963;29;20486;-77
2021/01/23 11:20:38;;;;;;;11.90;11.30;;;8.80;99.90;;;;;;4916924;29;20458;-77
2021/01/23 11:23:05;;;;;;;11.83;11.23;;;8.90;99.90;;;;;;4917641;29;20970;-77
2021/01/23 11:25:31;;;;;;;12.20;11.70;;;8.60;99.90;;;;;;4917025;29;20854;-77
2021/01/23 11:27:57;;;;;;;11.00;10.53;;;8.60;99.90;;;;;;4916906;29;20829;-77
2021/01/23 11:30:24;;;;;;;12.00;11.50;;;8.20;99.90;;;;;;4916823;29;20461;-77
2021/01/23 11:32:51;;;;;;;11.43;11.03;;;8.60;99.90;;;;;;4916778;29;20830;-77
2021/01/23 11:35:18;;;;;;;11.33;10.83;;;8.90;99.90;;;;;;4916984;29;20458;-77
2021/01/23 11:37:44;;;;;;;10.50;10.10;;;9.10;99.90;;;;;;4916661;29;20465;-77
2021/01/23 11:40:11;;;;;;;11.33;10.83;;;9.10;99.90;;;;;;4916667;29;20469;-77
2021/01/23 11:42:37;;;;;;;12.03;11.53;;;8.80;99.90;;;;;;4916552;29;20468;-76
2021/01/23 11:45:05;;;;;;;12.17;11.67;;;8.70;99.90;;;;;;4916787;29;20446;-77
2021/01/23 11:47:31;;;;;;;11.70;11.23;;;9.60;99.90;;;;;;4916727;29;20490;-77
2021/01/23 11:49:57;;;;;;;11.60;10.90;;;11.10;99.90;;;;;;4916417;29;20462;-76
2021/01/23 11:52:24;;;;;;;12.70;12.20;;;11.60;99.90;;;;;;4916215;29;20972;-76
2021/01/23 11:54:51;;;;;;;11.70;11.20;;;11.40;99.80;;;;;;4916558;29;20510;-77
2021/01/23 11:57:17;;;;;;;13.67;12.53;;;11.10;99.90;;;;;;4916693;29;20458;-76
2021/01/23 11:59:43;;;;;;;13.13;12.17;;;10.80;99.90;;;;;;4916349;29;20531;-76
2021/01/23 12:02:09;;;;;;;12.20;11.70;;;10.80;99.90;;;;;;4916150;29;20473;-76
2021/01/23 12:04:35;;;;;;;11.73;11.23;;;10.40;99.90;;;;;;4916235;29;20469;-76
2021/01/23 12:07:02;;;;;;;12.30;11.80;;;10.90;99.90;;;;;;4916311;29;20532;-76
2021/01/23 12:09:29;;;;;;;11.73;11.13;;;11.00;99.60;;;;;;4916203;29;20462;-77
2021/01/23 12:11:55;;;;;;;12.50;12.00;;;10.40;99.90;;;;;;4913424;29;20998;-77
2021/01/23 12:14:22;;;;;;;11.20;10.80;;;10.30;99.90;;;;;;4915566;29;20465;-76
2021/01/23 12:16:48;;;;;;;12.47;11.87;;;9.90;99.90;;;;;;4915707;29;20482;-76
2021/01/23 12:19:14;;;;;;;12.23;11.73;;;10.10;99.90;;;;;;4915680;29;20459;-76
2021/01/23 12:21:40;;;;;;;11.30;10.80;;;9.80;99.90;;;;;;4912632;29;20469;-76
2021/01/23 12:24:08;;;;;;;10.40;10.00;;;9.70;99.90;;;;;;4915249;29;20465;-76
2021/01/23 12:26:36;;;;;;;11.60;11.00;;;9.50;99.90;;;;;;4915541;29;20577;-76
2021/01/23 12:29:03;;;;;;;10.80;10.37;;;9.60;99.90;;;;;;4915519;29;20458;-76
2021/01/23 12:31:29;;;;;;;11.40;11.00;;;8.80;99.90;;;;;;4914981;29;20503;-76
2021/01/23 12:33:55;;;;;;;10.90;10.50;;;8.70;99.90;;;;;;4915387;29;20457;-77
2021/01/23 12:36:22;;;;;;;11.40;11.00;;;8.50;99.90;;;;;;4915116;29;20522;-76
2021/01/23 12:38:48;;;;;;;11.20;10.70;;;8.40;99.90;;;;;;4915507;29;20469;-76
2021/01/23 12:41:14;;;;;;;10.97;10.57;;;8.50;99.90;;;;;;4915192;29;20848;-76
2021/01/23 12:43:41;;;;;;;11.90;11.10;;;8.40;99.90;;;;;;4915049;29;20485;-76
2021/01/23 12:46:07;;;;;;;11.43;10.80;;;8.30;99.90;;;;;;4914797;29;20504;-76
2021/01/23 12:48:33;;;;;;;11.90;11.30;;;8.40;99.90;;;;;;4915517;29;20458;-76
2021/01/23 12:50:59;;;;;;;11.70;11.10;;;8.50;99.90;;;;;;4915045;29;20458;-76
2021/01/23 12:53:26;;;;;;;13.93;12.20;;;8.60;99.90;;;;;;4915064;29;20458;-76
2021/01/23 12:55:52;;;;;;;11.10;10.50;;;8.20;99.90;;;;;;4914782;29;20457;-76
2021/01/23 12:58:21;;;;;;;12.20;11.30;;;8.30;99.90;;;;;;4915168;29;20458;-77
2021/01/23 13:00:48;;;;;;;10.93;10.43;;;8.50;99.90;;;;;;4915042;29;20556;-76
2021/01/23 13:03:15;;;;;;;12.10;11.30;;;8.40;99.90;;;;;;4914836;29;20478;-76
2021/01/23 13:05:41;;;;;;;11.83;11.23;;;8.60;99.90;;;;;;4914818;29;20451;-76
2021/01/23 13:08:07;;;;;;;11.10;10.50;;;8.70;99.90;;;;;;4914964;29;20465;-75
2021/01/23 13:10:33;;;;;;;11.70;11.10;;;8.40;99.90;;;;;;4914871;29;20462;-77
2021/01/23 13:12:59;;;;;;;11.83;11.33;;;8.30;99.90;;;;;;4914475;29;20454;-77
2021/01/23 13:15:25;;;;;;;11.03;10.63;;;8.40;99.90;;;;;;4914888;29;20846;-76
2021/01/23 13:17:52;;;;;;;11.57;11.00;;;8.30;99.90;;;;;;4914678;29;20497;-76
2021/01/23 13:20:19;;;;;;;12.20;11.00;;;8.30;99.90;;;;;;4915163;29;20833;-76
2021/01/23 13:22:45;;;;;;;11.40;11.00;;;8.10;99.90;;;;;;4914842;29;20462;-76
2021/01/23 13:25:12;;;;;;;10.60;10.03;;;8.10;99.90;;;;;;4914844;29;20527;-76
2021/01/23 13:27:40;;;;;;;11.10;10.43;;;8.20;99.90;;;;;;4914837;29;20521;-76
2021/01/23 13:30:08;;;;;;;11.00;10.50;;;8.10;99.90;;;;;;4914723;29;20514;-76
2021/01/23 13:32:34;;;;;;;11.97;11.17;;;8.10;99.90;;;;;;4914978;29;20992;-76
2021/01/23 13:35:01;;;;;;;10.50;9.97;;;8.20;99.90;;;;;;4914671;29;21020;-76
2021/01/23 13:37:28;;;;;;;9.70;9.30;;;8.10;99.90;;;;;;4914640;29;20451;-76
2021/01/23 13:39:55;;;;;;;11.10;10.37;;;8.00;99.90;;;;;;4914560;29;20462;-76
2021/01/23 13:42:21;;;;;;;10.83;10.43;;;7.90;99.90;;;;;;4914584;29;20462;-76
2021/01/23 13:44:47;;;;;;;12.00;10.87;;;7.80;99.90;;;;;;4914615;29;20454;-76
2021/01/23 13:47:13;;;;;;;10.97;10.37;;;7.80;99.90;;;;;;4914452;29;20494;-76
2021/01/23 13:49:39;;;;;;;10.60;10.10;;;8.00;99.90;;;;;;4914383;29;21201;-76
2021/01/23 13:52:06;;;;;;;12.00;11.40;;;7.90;99.90;;;;;;4914655;29;20963;-76
2021/01/23 13:54:32;;;;;;;11.40;10.90;;;8.00;99.90;;;;;;4914569;29;20466;-76
2021/01/23 13:56:58;;;;;;;12.00;11.43;;;8.10;99.90;;;;;;4914351;29;20464;-76
2021/01/23 13:59:25;;;;;;;11.00;10.40;;;8.10;99.90;;;;;;4914338;29;20458;-76
2021/01/23 14:01:51;;;;;;;11.53;11.03;;;7.80;99.90;;;;;;4914273;29;20450;-75
2021/01/23 14:04:17;;;;;;;11.80;11.10;;;7.70;99.90;;;;;;4914565;29;20953;-76
2021/01/23 14:06:43;;;;;;;10.57;10.07;;;7.70;99.90;;;;;;4913996;29;20498;-75
2021/01/23 14:09:10;;;;;;;10.40;10.00;;;7.70;99.90;;;;;;4914135;29;20533;-76
2021/01/23 14:11:36;;;;;;;11.37;10.77;;;7.60;99.90;;;;;;4914129;29;20469;-76
2021/01/23 14:14:02;;;;;;;13.53;12.50;;;7.50;99.90;;;;;;4914117;29;20458;-76
2021/01/23 14:16:28;;;;;;;10.93;10.43;;;7.50;99.90;;;;;;4913149;29;20482;-76
2021/01/23 14:18:55;;;;;;;11.43;10.93;;;7.50;99.90;;;;;;4913678;29;20466;-76
2021/01/23 14:21:21;;;;;;;11.10;10.60;;;7.40;99.90;;;;;;4913639;29;20462;-76
2021/01/23 14:23:48;;;;;;;11.67;11.17;;;7.30;99.90;;;;;;4913739;29;20450;-75
2021/01/23 14:26:15;;;;;;;10.83;10.33;;;7.20;99.90;;;;;;4917331;29;20552;-76
2021/01/23 14:28:41;;;;;;;11.50;10.80;;;7.10;99.90;;;;;;4917323;29;20485;-76
2021/01/23 14:31:07;;;;;;;11.53;11.03;;;6.90;99.90;;;;;;4917081;29;20458;-76
2021/01/23 14:33:33;;;;;;;11.60;11.00;;;6.90;99.90;;;;;;4917466;29;20470;-76
2021/01/23 14:36:00;;;;;;;11.20;10.70;;;6.80;99.90;;;;;;4917229;29;21011;-76
2021/01/23 14:38:26;;;;;;;12.00;11.40;;;6.80;99.90;;;;;;4917163;29;20964;-76
2021/01/23 14:40:52;;;;;;;12.60;11.90;;;6.70;99.90;;;;;;4917264;29;20461;-76
2021/01/23 14:43:19;;;;;;;11.43;10.77;;;6.60;99.90;;;;;;4917337;29;20468;-76
2021/01/23 14:45:45;;;;;;;12.10;11.50;;;6.70;99.90;;;;;;4916943;29;20461;-75
2021/01/23 14:48:11;;;;;;;12.17;11.57;;;6.70;99.90;;;;;;4916972;29;20446;-76
2021/01/23 14:50:38;;;;;;;12.83;12.17;;;6.70;99.90;;;;;;4916888;29;20473;-75
2021/01/23 14:53:04;;;;;;;13.37;12.20;;;6.50;99.90;;;;;;4917075;29;21035;-76
2021/01/23 14:55:30;;;;;;;14.10;13.00;;;6.50;99.90;;;;;;4916987;29;20458;-75
2021/01/23 14:57:56;;;;;;;14.37;13.47;;;6.40;99.90;;;;;;4916836;29;20442;-75
2021/01/23 15:00:23;;;;;;;14.00;13.00;;;6.40;99.90;;;;;;4916783;29;20463;-76
2021/01/23 15:02:49;;;;;;;15.70;14.43;;;6.40;99.90;;;;;;4916942;29;20482;-75
2021/01/23 15:05:16;;;;;;;14.50;13.70;;;6.30;99.90;;;;;;4916734;29;20567;-76
2021/01/23 15:07:42;;;;;;;13.97;13.17;;;6.30;99.90;;;;;;4916598;29;20517;-76
2021/01/23 15:10:09;;;;;;;13.80;13.00;;;6.20;99.90;;;;;;4919062;29;21020;-76
2021/01/23 15:12:36;;;;;;;14.60;13.63;;;6.10;99.90;;;;;;4925683;29;20520;-76
2021/01/23 15:15:05;;;;;;;14.10;13.30;;;6.10;99.90;;;;;;4925047;29;20452;-76
2021/01/23 15:17:32;;;;;;;13.13;12.23;;;6.10;99.90;;;;;;4916796;29;20474;-76
2021/01/23 15:19:58;;;;;;;14.00;13.00;;;6.10;99.90;;;;;;4916401;29;20465;-75
2021/01/23 15:22:24;;;;;;;13.13;12.13;;;6.10;99.90;;;;;;4916271;29;20457;-75
2021/01/23 15:24:50;;;;;;;14.00;13.30;;;6.00;99.90;;;;;;4916390;29;20494;-75
2021/01/23 15:27:16;;;;;;;12.00;11.47;;;5.90;99.90;;;;;;4916520;29;20491;-75
2021/01/23 15:29:43;;;;;;;11.90;11.20;;;5.90;99.90;;;;;;4916405;29;20458;-75
2021/01/23 15:32:09;;;;;;;13.83;12.63;;;5.80;99.90;;;;;;4916280;29;20452;-75
2021/01/23 15:34:36;;;;;;;11.57;10.97;;;5.80;99.90;;;;;;4916465;29;20457;-75
2021/01/23 15:37:02;;;;;;;11.90;11.00;;;5.80;99.90;;;;;;4915893;29;20450;-75
2021/01/23 15:39:28;;;;;;;11.80;11.10;;;5.70;99.90;;;;;;4916065;29;20492;-75
2021/01/23 15:41:54;;;;;;;11.03;10.53;;;5.70;99.90;;;;;;4916160;29;20984;-74
2021/01/23 15:44:21;;;;;;;11.20;10.43;;;5.70;99.90;;;;;;4915950;29;20458;-75
2021/01/23 15:46:47;;;;;;;11.20;10.70;;;5.60;99.90;;;;;;4913439;29;20508;-74
2021/01/23 15:49:13;;;;;;;10.93;10.40;;;5.60;99.90;;;;;;4916872;29;20460;-74
2021/01/23 15:51:40;;;;;;;11.47;10.80;;;5.50;99.90;;;;;;4917025;29;20497;-74
2021/01/23 15:54:06;;;;;;;10.80;10.10;;;5.50;99.90;;;;;;4912273;29;20500;-74